Mamolino 2068 — 9HB3040 — position and weather

sailwx.info

Track history (hours):
 
Tides and Currents Weather Stations Pressure Air Temp Water Temp Dewpoint Dewpoint Depression Visibility Wind Speed Wind Dir Waves Ship Positions

Mamolino 2068

Last reported at 2017-Nov-02 08:12 UTC. Time now 2017-Nov-21 04:15 UTC.
Position S 04°49' E 011°27'.
Warning: this ship's position is 18 days out of date.

Length 20 m; draft 1 m.

Type: Passenger vessel. MMSI: 229233000.

Date/timePositionNaut miles runAvg speedWind from/ knotsBaromVisibWave heightAir tempDewpointWater temp
2017-Nov-02 08:12S 04°49' E 011°27'0 0.4
2017-Nov-02 07:57S 04°49' E 011°27'0 0.2
2017-Nov-02 07:30S 04°49' E 011°27'10 0.8
2017-Nov-01 18:35S 04°59' E 011°27'116.4
2017-Nov-01 18:30S 05°01' E 011°27'22 0.4
2017-Oct-30 15:16S 05°23' E 011°27'0 0.0
2017-Oct-29 09:08S 05°23' E 011°27'0 0.0
2017-Oct-28 16:27S 05°23' E 011°26'0 0.3
2017-Oct-28 16:00S 05°23' E 011°27'0 0.2
2017-Oct-28 15:21S 05°23' E 011°27'0 0.0
2017-Oct-28 14:54S 05°23' E 011°27'0 0.0
2017-Oct-28 14:18S 05°23' E 011°27'0 0.0
2017-Oct-28 13:58S 05°23' E 011°27'0 0.0
2017-Oct-28 11:39S 05°23' E 011°27'0 0.2
2017-Oct-28 11:30S 05°23' E 011°27'0 0.0
2017-Oct-28 11:00S 05°23' E 011°27'0 0.0
2017-Oct-28 10:27S 05°23' E 011°27'0 0.0
2017-Oct-28 09:58S 05°23' E 011°27'0 0.0
2017-Oct-28 08:15S 05°23' E 011°27'0 0.0
2017-Oct-28 07:59S 05°23' E 011°27'0 0.0
2017-Oct-28 07:31S 05°23' E 011°27'0 0.0
2017-Oct-28 06:57S 05°23' E 011°27'0 0.0
2017-Oct-27 14:37S 05°23' E 011°27'0 0.4
2017-Oct-27 14:25S 05°23' E 011°27'0 0.0
2017-Oct-27 14:00S 05°23' E 011°27'0 0.0
2017-Oct-27 13:28S 05°23' E 011°27'0 0.0
2017-Oct-27 12:48S 05°23' E 011°27'0 0.2
2017-Oct-27 12:30S 05°23' E 011°27'0 0.0
2017-Oct-27 09:58S 05°23' E 011°27'0 0.0
2017-Oct-27 09:08S 05°23' E 011°27'0 0.0
2017-Oct-27 08:58S 05°23' E 011°27'0 0.0
2017-Oct-27 08:30S 05°23' E 011°27'0 0.0
2017-Oct-27 07:59S 05°23' E 011°27'0 0.0
2017-Oct-27 07:30S 05°23' E 011°27'0 0.0
2017-Oct-27 07:00S 05°23' E 011°27'0 0.7
2017-Oct-27 06:28S 05°23' E 011°26'0 0.2
2017-Oct-27 05:44S 05°23' E 011°26'0 0.5
2017-Oct-27 05:29S 05°23' E 011°26'0 0.0
2017-Oct-26 17:00S 05°23' E 011°27'0 0.1
2017-Oct-26 16:27S 05°23' E 011°27'0 0.1
2017-Oct-26 16:00S 05°23' E 011°27'0 0.0
2017-Oct-26 15:30S 05°23' E 011°27'0 0.0
2017-Oct-26 14:58S 05°23' E 011°27'0 0.0
2017-Oct-26 14:20S 05°23' E 011°27'0 0.0
2017-Oct-26 13:59S 05°23' E 011°27'0 0.0
2017-Oct-26 13:28S 05°23' E 011°27'0 0.0
2017-Oct-26 12:59S 05°23' E 011°27'2 2.9
2017-Oct-26 12:13S 05°21' E 011°25'1 2.3
2017-Oct-26 11:57S 05°22' E 011°26'1 2.4
2017-Oct-26 11:28S 05°22' E 011°26'0 0.9
2017-Oct-26 10:58S 05°23' E 011°27'0 0.0
2017-Oct-26 10:29S 05°23' E 011°27'0 0.0
2017-Oct-26 10:00S 05°23' E 011°27'0 0.0
2017-Oct-26 09:30S 05°23' E 011°27'0 0.0
2017-Oct-26 09:00S 05°23' E 011°27'0 0.0
2017-Oct-26 08:24S 05°23' E 011°27'0 0.0
2017-Oct-26 07:54S 05°23' E 011°27'0 0.0
2017-Oct-26 07:23S 05°23' E 011°27'0 0.0
2017-Oct-26 05:08S 05°23' E 011°27'0 2.6
2017-Oct-26 04:59S 05°23' E 011°26'2 3.0
2017-Oct-26 04:13S 05°21' E 011°28'  
2017-Oct-23 18:32S 05°16' E 011°30'011.3
2017-Oct-23 18:30S 05°17' E 011°30'511.1
2017-Oct-23 18:00S 05°21' E 011°27'2 4.2
2017-Oct-23 17:30S 05°23' E 011°27'0 1.0
2017-Oct-23 16:59S 05°23' E 011°26'0 0.5
2017-Oct-23 16:30S 05°23' E 011°27'0 0.0
2017-Oct-23 15:59S 05°23' E 011°27'0 0.0
2017-Oct-23 15:30S 05°23' E 011°27'0 0.1
2017-Oct-23 15:00S 05°23' E 011°27'0 0.0
2017-Oct-23 14:30S 05°23' E 011°27'0 0.0
2017-Oct-23 14:00S 05°23' E 011°27'0 0.0
2017-Oct-23 13:30S 05°23' E 011°27'0 0.0
2017-Oct-23 12:59S 05°23' E 011°27'0 0.1
2017-Oct-23 12:30S 05°23' E 011°27'0 0.1
2017-Oct-23 12:00S 05°23' E 011°27'1 2.4
2017-Oct-23 11:30S 05°22' E 011°26'0 0.0
2017-Oct-23 11:00S 05°22' E 011°26'0 0.0
2017-Oct-23 10:27S 05°22' E 011°26'1 2.9
2017-Oct-23 10:00S 05°23' E 011°26'1 0.9
2017-Oct-23 09:25S 05°22' E 011°26'1 1.5
2017-Oct-23 09:00S 05°23' E 011°27'0 0.3
2017-Oct-23 08:20S 05°23' E 011°26'  
Track history (hours):
 
Tides and Currents Weather Stations Pressure Air Temp Water Temp Dewpoint Dewpoint Depression Visibility Wind Speed Wind Dir Waves Ship Positions

Mamolino 2068

Last reported at 2017-Nov-02 08:12 UTC. Time now 2017-Nov-21 04:15 UTC.
Position S 04°49' E 011°27'.
Warning: this ship's position is 18 days out of date.

Length 20 m; draft 1 m.

Type: Passenger vessel. MMSI: 229233000.

Date/timePositionNaut miles runAvg speedWind from/ knotsBaromVisibWave heightAir tempDewpointWater temp
2017-Nov-02 08:12S 04°49' E 011°27'0 0.4
2017-Nov-02 07:57S 04°49' E 011°27'0 0.2
2017-Nov-02 07:30S 04°49' E 011°27'10 0.8
2017-Nov-01 18:35S 04°59' E 011°27'116.4
2017-Nov-01 18:30S 05°01' E 011°27'22 0.4
2017-Oct-30 15:16S 05°23' E 011°27'0 0.0
2017-Oct-29 09:08S 05°23' E 011°27'0 0.0
2017-Oct-28 16:27S 05°23' E 011°26'0 0.3
2017-Oct-28 16:00S 05°23' E 011°27'0 0.2
2017-Oct-28 15:21S 05°23' E 011°27'0 0.0
2017-Oct-28 14:54S 05°23' E 011°27'0 0.0
2017-Oct-28 14:18S 05°23' E 011°27'0 0.0
2017-Oct-28 13:58S 05°23' E 011°27'0 0.0
2017-Oct-28 11:39S 05°23' E 011°27'0 0.2
2017-Oct-28 11:30S 05°23' E 011°27'0 0.0
2017-Oct-28 11:00S 05°23' E 011°27'0 0.0
2017-Oct-28 10:27S 05°23' E 011°27'0 0.0
2017-Oct-28 09:58S 05°23' E 011°27'0 0.0
2017-Oct-28 08:15S 05°23' E 011°27'0 0.0
2017-Oct-28 07:59S 05°23' E 011°27'0 0.0
2017-Oct-28 07:31S 05°23' E 011°27'0 0.0
2017-Oct-28 06:57S 05°23' E 011°27'0 0.0
2017-Oct-27 14:37S 05°23' E 011°27'0 0.4
2017-Oct-27 14:25S 05°23' E 011°27'0 0.0
2017-Oct-27 14:00S 05°23' E 011°27'0 0.0
2017-Oct-27 13:28S 05°23' E 011°27'0 0.0
2017-Oct-27 12:48S 05°23' E 011°27'0 0.2
2017-Oct-27 12:30S 05°23' E 011°27'0 0.0
2017-Oct-27 09:58S 05°23' E 011°27'0 0.0
2017-Oct-27 09:08S 05°23' E 011°27'0 0.0
2017-Oct-27 08:58S 05°23' E 011°27'0 0.0
2017-Oct-27 08:30S 05°23' E 011°27'0 0.0
2017-Oct-27 07:59S 05°23' E 011°27'0 0.0
2017-Oct-27 07:30S 05°23' E 011°27'0 0.0
2017-Oct-27 07:00S 05°23' E 011°27'0 0.7
2017-Oct-27 06:28S 05°23' E 011°26'0 0.2
2017-Oct-27 05:44S 05°23' E 011°26'0 0.5
2017-Oct-27 05:29S 05°23' E 011°26'0 0.0
2017-Oct-26 17:00S 05°23' E 011°27'0 0.1
2017-Oct-26 16:27S 05°23' E 011°27'0 0.1
2017-Oct-26 16:00S 05°23' E 011°27'0 0.0
2017-Oct-26 15:30S 05°23' E 011°27'0 0.0
2017-Oct-26 14:58S 05°23' E 011°27'0 0.0
2017-Oct-26 14:20S 05°23' E 011°27'0 0.0
2017-Oct-26 13:59S 05°23' E 011°27'0 0.0
2017-Oct-26 13:28S 05°23' E 011°27'0 0.0
2017-Oct-26 12:59S 05°23' E 011°27'2 2.9
2017-Oct-26 12:13S 05°21' E 011°25'1 2.3
2017-Oct-26 11:57S 05°22' E 011°26'1 2.4
2017-Oct-26 11:28S 05°22' E 011°26'0 0.9
2017-Oct-26 10:58S 05°23' E 011°27'0 0.0
2017-Oct-26 10:29S 05°23' E 011°27'0 0.0
2017-Oct-26 10:00S 05°23' E 011°27'0 0.0
2017-Oct-26 09:30S 05°23' E 011°27'0 0.0
2017-Oct-26 09:00S 05°23' E 011°27'0 0.0
2017-Oct-26 08:24S 05°23' E 011°27'0 0.0
2017-Oct-26 07:54S 05°23' E 011°27'0 0.0
2017-Oct-26 07:23S 05°23' E 011°27'0 0.0
2017-Oct-26 05:08S 05°23' E 011°27'0 2.6
2017-Oct-26 04:59S 05°23' E 011°26'2 3.0
2017-Oct-26 04:13S 05°21' E 011°28'  
2017-Oct-23 18:32S 05°16' E 011°30'011.3
2017-Oct-23 18:30S 05°17' E 011°30'511.1
2017-Oct-23 18:00S 05°21' E 011°27'2 4.2
2017-Oct-23 17:30S 05°23' E 011°27'0 1.0
2017-Oct-23 16:59S 05°23' E 011°26'0 0.5
2017-Oct-23 16:30S 05°23' E 011°27'0 0.0
2017-Oct-23 15:59S 05°23' E 011°27'0 0.0
2017-Oct-23 15:30S 05°23' E 011°27'0 0.1
2017-Oct-23 15:00S 05°23' E 011°27'0 0.0
2017-Oct-23 14:30S 05°23' E 011°27'0 0.0
2017-Oct-23 14:00S 05°23' E 011°27'0 0.0
2017-Oct-23 13:30S 05°23' E 011°27'0 0.0
2017-Oct-23 12:59S 05°23' E 011°27'0 0.1
2017-Oct-23 12:30S 05°23' E 011°27'0 0.1
2017-Oct-23 12:00S 05°23' E 011°27'1 2.4
2017-Oct-23 11:30S 05°22' E 011°26'0 0.0
2017-Oct-23 11:00S 05°22' E 011°26'0 0.0
2017-Oct-23 10:27S 05°22' E 011°26'1 2.9
2017-Oct-23 10:00S 05°23' E 011°26'1 0.9
2017-Oct-23 09:25S 05°22' E 011°26'1 1.5
2017-Oct-23 09:00S 05°23' E 011°27'0 0.3
2017-Oct-23 08:20S 05°23' E 011°26'  

Dump ship's entire track history